Time;durP1;ratioP1;P1;durP2;ratioP2;P2;SDS_P1;SDS_P2;PMS_P1;PMS_P2;Temp;Humidity;BMP_temperature;BMP_pressure;BME280_temperature;BME280_humidity;BME280_pressure;Samples;Min_cycle;Max_cycle;Signal;HPM_P1;HPM_P2
2021/08/12 00:02:04;;;;;;;9.88;6.53;;;17.80;99.90;;;;;;5055049;28;20043;-74
2021/08/12 00:04:31;;;;;;;14.10;6.80;;;17.80;99.90;;;;;;5069045;28;20044;-74
2021/08/12 00:06:57;;;;;;;8.23;6.78;;;17.80;99.90;;;;;;5054543;28;20021;-73
2021/08/12 00:09:23;;;;;;;12.25;6.82;;;17.80;99.90;;;;;;5054326;28;20081;-73
2021/08/12 00:11:49;;;;;;;11.65;6.60;;;17.70;99.90;;;;;;5054167;28;20456;-73
2021/08/12 00:14:15;;;;;;;8.85;5.57;;;17.70;99.90;;;;;;5054151;28;20071;-74
2021/08/12 00:16:40;;;;;;;8.07;5.30;;;17.60;99.90;;;;;;5054693;28;20029;-73
2021/08/12 00:19:11;;;;;;;10.73;6.10;;;17.60;99.90;;;;;;5054321;28;20036;-73
2021/08/12 00:21:41;;;;;;;8.52;5.88;;;17.50;99.90;;;;;;5053861;28;20021;-74
2021/08/12 00:24:07;;;;;;;11.00;7.40;;;17.50;99.90;;;;;;5068375;28;20033;-73
2021/08/12 00:26:33;;;;;;;10.02;6.45;;;17.50;99.90;;;;;;5053188;28;20107;-73
2021/08/12 00:28:58;;;;;;;15.18;7.53;;;17.40;99.90;;;;;;5053869;28;20115;-73
2021/08/12 00:31:24;;;;;;;10.23;7.32;;;17.40;99.90;;;;;;5051371;28;20088;-73
2021/08/12 00:33:50;;;;;;;13.75;8.23;;;17.40;99.90;;;;;;5054051;28;20017;-73
2021/08/12 00:36:15;;;;;;;14.43;7.93;;;17.50;99.90;;;;;;5054430;28;20024;-73
2021/08/12 00:38:41;;;;;;;11.50;8.82;;;17.50;99.90;;;;;;5054035;28;20032;-73
2021/08/12 00:41:06;;;;;;;11.38;7.60;;;17.50;99.90;;;;;;5053712;28;20028;-74
2021/08/12 00:43:32;;;;;;;14.48;8.50;;;17.50;99.90;;;;;;5053404;28;20021;-73
2021/08/12 00:45:57;;;;;;;12.13;8.10;;;17.60;99.90;;;;;;5054325;28;20029;-74
2021/08/12 00:48:23;;;;;;;8.52;6.93;;;17.60;99.90;;;;;;5053892;28;20021;-73
2021/08/12 00:50:49;;;;;;;11.20;7.32;;;17.70;99.90;;;;;;5053809;28;20068;-73
2021/08/12 00:53:14;;;;;;;13.20;7.93;;;17.80;99.90;;;;;;5053686;28;20032;-73
2021/08/12 00:55:45;;;;;;;11.77;7.38;;;17.70;99.90;;;;;;5053626;28;20061;-73
2021/08/12 00:58:14;;;;;;;9.05;6.82;;;17.70;99.90;;;;;;5052731;28;20119;-73
2021/08/12 01:00:41;;;;;;;14.10;6.40;;;17.60;99.90;;;;;;5068745;28;20021;-73
2021/08/12 01:03:10;;;;;;;9.90;6.68;;;17.60;99.90;;;;;;5052897;28;20481;-73
2021/08/12 01:05:47;;;;;;;12.25;7.20;;;17.50;99.90;;;;;;5052449;28;20025;-74
2021/08/12 01:08:22;;;;;;;10.52;7.68;;;17.40;99.90;;;;;;5054616;28;20094;-73
2021/08/12 01:10:59;;;;;;;8.95;7.15;;;17.40;99.90;;;;;;5053275;28;20079;-73
2021/08/12 01:13:52;;;;;;;14.75;8.43;;;17.30;99.90;;;;;;5064133;28;20119;-73
2021/08/12 01:16:21;;;;;;;14.77;8.88;;;17.30;99.90;;;;;;5051929;28;20020;-73
2021/08/12 01:19:28;;;;;;;15.02;8.60;;;17.30;99.90;;;;;;5053451;28;20036;-74
2021/08/12 01:21:54;;;;;;;;;;;17.30;99.90;;;;;;5052755;28;20493;-74
2021/08/12 01:24:21;;;;;;;15.93;9.32;;;17.30;99.90;;;;;;5051791;28;19915;-73
2021/08/12 01:26:52;;;;;;;23.47;10.63;;;17.30;99.90;;;;;;5054137;28;20092;-73
2021/08/12 01:29:33;;;;;;;17.55;10.65;;;17.30;99.90;;;;;;5050805;28;20043;-73
2021/08/12 01:32:07;;;;;;;19.52;10.70;;;17.30;99.90;;;;;;5052756;28;20033;-74
2021/08/12 01:34:57;;;;;;;17.00;11.55;;;17.30;99.90;;;;;;5052775;28;20032;-73
2021/08/12 01:37:26;;;;;;;19.05;11.05;;;17.40;99.90;;;;;;5050830;28;20029;-73
2021/08/12 01:39:53;;;;;;;35.63;13.10;;;17.40;99.90;;;;;;5052559;28;20028;-73
2021/08/12 01:42:21;;;;;;;23.77;12.85;;;17.40;99.90;;;;;;5053077;28;20110;-73
2021/08/12 01:44:50;;;;;;;22.33;12.27;;;17.50;99.90;;;;;;5052418;28;20036;-73
2021/08/12 01:47:15;;;;;;;21.52;13.10;;;17.60;99.90;;;;;;5052200;28;20032;-73
2021/08/12 01:49:42;;;;;;;17.17;11.30;;;17.60;99.90;;;;;;5052503;28;20037;-73
2021/08/12 01:52:09;;;;;;;20.10;11.23;;;17.60;99.90;;;;;;5051196;28;20037;-74
2021/08/12 01:54:37;;;;;;;20.85;11.82;;;17.50;99.90;;;;;;5052925;28;20351;-74
2021/08/12 01:57:03;;;;;;;22.13;12.63;;;17.50;99.90;;;;;;5052454;28;20175;-73
2021/08/12 01:59:30;;;;;;;20.67;12.98;;;17.50;99.90;;;;;;5052244;28;20040;-73
2021/08/12 02:01:57;;;;;;;22.42;13.57;;;17.50;99.90;;;;;;5049894;28;20048;-73
2021/08/12 02:04:24;;;;;;;21.70;13.43;;;17.60;99.90;;;;;;5052957;28;20031;-73
2021/08/12 02:06:51;;;;;;;27.20;14.70;;;17.60;99.90;;;;;;5051042;28;20033;-73
2021/08/12 02:09:17;;;;;;;26.88;14.38;;;17.60;99.90;;;;;;5051514;28;20636;-73
2021/08/12 02:11:43;;;;;;;21.25;13.40;;;17.60;99.90;;;;;;5052566;28;20032;-73
2021/08/12 02:14:09;;;;;;;24.30;14.30;;;17.70;99.90;;;;;;5051407;28;20017;-73
2021/08/12 02:16:35;;;;;;;21.42;13.70;;;17.80;99.90;;;;;;5052231;28;20393;-73
2021/08/12 02:19:01;;;;;;;32.42;15.88;;;17.80;99.90;;;;;;5053067;28;20025;-73
2021/08/12 02:21:34;;;;;;;29.10;15.68;;;17.80;99.90;;;;;;5052720;28;20043;-73
2021/08/12 02:24:09;;;;;;;24.10;15.27;;;17.70;99.90;;;;;;5052475;28;20020;-73
2021/08/12 02:26:40;;;;;;;30.20;16.05;;;17.70;99.90;;;;;;5051182;28;20044;-73
2021/08/12 02:29:10;;;;;;;23.00;15.25;;;17.70;99.90;;;;;;5053010;28;20108;-73
2021/08/12 02:31:37;;;;;;;31.73;16.65;;;17.70;99.90;;;;;;5052248;28;20021;-73
2021/08/12 02:34:03;;;;;;;25.35;14.60;;;17.60;99.90;;;;;;5053127;28;20025;-73
2021/08/12 02:36:30;;;;;;;28.45;15.90;;;17.60;99.90;;;;;;5051118;28;20397;-74
2021/08/12 02:38:57;;;;;;;28.85;15.60;;;17.60;99.90;;;;;;5053064;28;20021;-73
2021/08/12 02:41:23;;;;;;;29.30;17.02;;;17.60;99.90;;;;;;5052324;28;20033;-73
2021/08/12 02:43:50;;;;;;;26.67;15.18;;;17.70;99.90;;;;;;5051343;28;20132;-73
2021/08/12 02:46:18;;;;;;;33.10;17.50;;;17.60;99.90;;;;;;5054757;28;20494;-74
2021/08/12 02:48:46;;;;;;;26.27;15.73;;;17.60;99.90;;;;;;5057443;28;20017;-73
2021/08/12 02:51:13;;;;;;;21.80;14.48;;;17.60;99.90;;;;;;5057315;28;20025;-73
2021/08/12 02:53:40;;;;;;;22.38;14.60;;;17.50;99.90;;;;;;5056806;28;20033;-73
2021/08/12 02:56:10;;;;;;;27.47;15.07;;;17.50;99.90;;;;;;5057817;28;20028;-73
2021/08/12 02:58:40;;;;;;;23.08;14.00;;;17.40;99.90;;;;;;5058108;28;20087;-74
2021/08/12 03:01:07;;;;;;;23.70;14.32;;;17.40;99.90;;;;;;5067896;28;20029;-72
2021/08/12 03:03:35;;;;;;;26.50;14.95;;;17.40;99.90;;;;;;5069480;28;20045;-74
2021/08/12 03:06:01;;;;;;;28.15;16.05;;;17.30;99.90;;;;;;5072166;28;20516;-74
2021/08/12 03:08:29;;;;;;;24.77;15.00;;;17.30;99.90;;;;;;5070338;28;20022;-75
2021/08/12 03:10:55;;;;;;;24.20;14.40;;;17.30;99.90;;;;;;5072467;28;20092;-74
2021/08/12 03:13:21;;;;;;;23.58;14.18;;;17.30;99.90;;;;;;5069488;28;20069;-74
2021/08/12 03:15:49;;;;;;;27.08;15.20;;;17.30;99.90;;;;;;5074002;28;20044;-74
2021/08/12 03:18:15;;;;;;;19.90;14.43;;;17.30;99.90;;;;;;5074995;28;20024;-75
2021/08/12 03:20:43;;;;;;;27.95;15.05;;;17.20;99.90;;;;;;5074674;28;20025;-74
2021/08/12 03:23:10;;;;;;;23.33;14.43;;;17.10;99.90;;;;;;5073641;28;20044;-74
2021/08/12 03:25:35;;;;;;;25.42;13.85;;;17.10;99.90;;;;;;5072571;28;20017;-74
2021/08/12 03:28:01;;;;;;;23.65;14.60;;;17.00;99.90;;;;;;5074695;28;20024;-74
2021/08/12 03:30:27;;;;;;;23.38;13.98;;;17.00;99.90;;;;;;5074495;28;20036;-74
2021/08/12 03:32:53;;;;;;;25.23;15.40;;;16.90;99.90;;;;;;5074724;28;20028;-75
2021/08/12 03:35:19;;;;;;;23.85;14.23;;;16.90;99.90;;;;;;5076033;28;20056;-74
2021/08/12 03:37:45;;;;;;;35.88;15.98;;;16.80;99.90;;;;;;5075646;28;20061;-74
2021/08/12 03:40:11;;;;;;;31.30;14.65;;;16.80;99.90;;;;;;5075490;28;20033;-75
2021/08/12 03:42:37;;;;;;;25.52;15.00;;;16.80;99.90;;;;;;5073481;28;20048;-73
2021/08/12 03:45:03;;;;;;;21.23;14.10;;;16.80;99.90;;;;;;5066629;28;20056;-74
2021/08/12 03:47:29;;;;;;;30.27;16.20;;;16.70;99.90;;;;;;5061888;28;20033;-74
2021/08/12 03:49:55;;;;;;;27.05;15.27;;;16.70;99.90;;;;;;5060964;28;20040;-73
2021/08/12 03:52:21;;;;;;;30.95;15.30;;;16.70;99.90;;;;;;5062542;28;20025;-74
2021/08/12 03:54:46;;;;;;;24.92;15.02;;;16.70;99.90;;;;;;5058631;28;20033;-73
2021/08/12 03:57:12;;;;;;;24.75;14.95;;;16.80;99.90;;;;;;5059909;28;20033;-73
2021/08/12 03:59:37;;;;;;;21.95;13.68;;;16.70;99.90;;;;;;5060195;28;20033;-75
2021/08/12 04:02:04;;;;;;;29.95;15.52;;;16.70;99.90;;;;;;5059621;28;20041;-74
2021/08/12 04:04:30;;;;;;;24.23;14.55;;;16.80;99.90;;;;;;5057291;28;20092;-73
2021/08/12 04:06:56;;;;;;;19.42;13.00;;;16.80;99.90;;;;;;5058703;28;20052;-74
2021/08/12 04:09:21;;;;;;;23.15;14.13;;;16.90;99.90;;;;;;5058665;28;20291;-74
2021/08/12 04:11:47;;;;;;;25.83;14.52;;;16.90;99.90;;;;;;5056768;28;20032;-74
2021/08/12 04:14:12;;;;;;;26.20;14.70;;;16.90;99.90;;;;;;5057955;28;20024;-75
2021/08/12 04:16:38;;;;;;;19.33;12.75;;;16.90;99.90;;;;;;5057909;28;20123;-74
2021/08/12 04:19:04;;;;;;;28.00;15.88;;;16.90;99.90;;;;;;5058310;28;20025;-73
2021/08/12 04:21:30;;;;;;;20.13;12.98;;;16.90;99.90;;;;;;5055740;28;20108;-75
2021/08/12 04:23:55;;;;;;;25.45;13.18;;;16.90;99.90;;;;;;5056285;28;20104;-74
2021/08/12 04:26:27;;;;;;;25.27;13.65;;;16.90;99.90;;;;;;5055109;28;20496;-74
2021/08/12 04:28:53;;;;;;;24.60;15.02;;;16.90;99.90;;;;;;5053788;28;20029;-75
2021/08/12 04:31:18;;;;;;;19.35;13.35;;;16.90;99.90;;;;;;5051498;28;20381;-74
2021/08/12 04:33:44;;;;;;;24.23;13.95;;;16.90;99.90;;;;;;5047771;28;20017;-74
2021/08/12 04:36:09;;;;;;;22.77;13.30;;;16.90;99.90;;;;;;5050799;28;20508;-74
2021/08/12 04:38:35;;;;;;;22.98;12.60;;;16.90;99.90;;;;;;5053125;28;20025;-74
2021/08/12 04:41:01;;;;;;;21.02;12.68;;;16.90;99.90;;;;;;5047773;28;20035;-74
2021/08/12 04:43:26;;;;;;;18.58;11.77;;;16.90;99.90;;;;;;5048926;28;20099;-74
2021/08/12 04:45:52;;;;;;;24.08;13.63;;;16.90;99.90;;;;;;5059107;28;20021;-74
2021/08/12 04:48:18;;;;;;;23.02;12.02;;;17.00;99.90;;;;;;5057015;28;20075;-74
2021/08/12 04:50:44;;;;;;;22.10;13.40;;;17.00;99.90;;;;;;5054897;28;20060;-75
2021/08/12 04:53:09;;;;;;;20.10;12.13;;;17.00;99.90;;;;;;5059287;28;20020;-73
2021/08/12 04:55:35;;;;;;;27.92;15.27;;;17.00;99.90;;;;;;5054586;28;20016;-73
2021/08/12 04:58:01;;;;;;;18.38;11.63;;;17.10;99.90;;;;;;5059818;28;20056;-74
2021/08/12 05:00:26;;;;;;;18.77;11.82;;;17.10;99.90;;;;;;5052546;28;20080;-74
2021/08/12 05:02:52;;;;;;;20.88;12.02;;;17.10;99.90;;;;;;5052228;28;20049;-74
2021/08/12 05:05:18;;;;;;;19.30;12.55;;;17.10;99.90;;;;;;5052951;28;20032;-74
2021/08/12 05:07:44;;;;;;;19.95;11.68;;;17.20;99.90;;;;;;5056798;28;20084;-74
2021/08/12 05:10:10;;;;;;;19.83;12.45;;;17.20;99.90;;;;;;5057295;28;20108;-73
2021/08/12 05:12:35;;;;;;;17.23;10.98;;;17.20;99.90;;;;;;5055202;28;20082;-75
2021/08/12 05:15:01;;;;;;;25.85;11.98;;;17.30;99.90;;;;;;5059376;28;21631;-74
2021/08/12 05:17:27;;;;;;;18.70;11.63;;;17.30;99.90;;;;;;5056688;28;20397;-73
2021/08/12 05:19:53;;;;;;;23.67;11.40;;;17.40;99.90;;;;;;5050974;28;20043;-74
2021/08/12 05:22:21;;;;;;;19.50;12.52;;;17.40;99.90;;;;;;5053144;28;20060;-74
2021/08/12 05:24:47;;;;;;;17.80;11.10;;;17.50;99.90;;;;;;5057781;28;20016;-75
2021/08/12 05:27:12;;;;;;;21.90;11.32;;;17.50;99.90;;;;;;5051668;28;20036;-75
2021/08/12 05:29:38;;;;;;;16.00;10.77;;;17.60;99.90;;;;;;5050606;28;20037;-74
2021/08/12 05:32:04;;;;;;;19.52;10.35;;;17.60;99.90;;;;;;5050933;28;20025;-75
2021/08/12 05:34:29;;;;;;;15.55;10.30;;;17.70;99.90;;;;;;5047182;28;20025;-75
2021/08/12 05:36:55;;;;;;;20.88;11.35;;;17.70;99.90;;;;;;5052542;28;20036;-74
2021/08/12 05:39:39;;;;;;;19.00;10.52;;;17.80;99.90;;;;;;5050993;28;20029;-74
2021/08/12 05:42:05;;;;;;;20.42;10.52;;;17.80;99.90;;;;;;5048655;28;20090;-75
2021/08/12 05:44:31;;;;;;;15.80;10.70;;;17.80;99.90;;;;;;5052840;28;20025;-74
2021/08/12 05:46:56;;;;;;;14.10;9.77;;;17.80;99.90;;;;;;5052394;28;20075;-74
2021/08/12 05:49:23;;;;;;;16.83;10.15;;;17.90;99.90;;;;;;5050494;28;20033;-74
2021/08/12 05:51:50;;;;;;;16.40;9.85;;;18.00;99.90;;;;;;5050292;28;20508;-74
2021/08/12 05:54:16;;;;;;;16.58;11.25;;;18.00;99.90;;;;;;5049695;28;20094;-74
2021/08/12 05:56:41;;;;;;;19.10;10.43;;;18.10;99.90;;;;;;5052364;28;20020;-75
2021/08/12 05:59:09;;;;;;;17.58;10.02;;;18.10;99.90;;;;;;5051543;28;20032;-74
2021/08/12 06:01:35;;;;;;;19.35;10.43;;;18.10;99.90;;;;;;5049103;28;20895;-74
2021/08/12 06:04:01;;;;;;;24.65;10.23;;;18.00;99.90;;;;;;5051017;28;20084;-74
2021/08/12 06:06:26;;;;;;;17.20;9.40;;;18.00;99.90;;;;;;5049647;28;20493;-74
2021/08/12 06:08:52;;;;;;;16.88;10.20;;;18.00;99.90;;;;;;5052056;28;20021;-74
2021/08/12 06:11:17;;;;;;;16.88;10.38;;;18.00;99.90;;;;;;5050833;28;20074;-74
2021/08/12 06:13:43;;;;;;;15.43;9.75;;;18.10;99.90;;;;;;5050263;28;20047;-74
2021/08/12 06:16:10;;;;;;;18.73;11.45;;;18.10;99.90;;;;;;5048315;28;20025;-74
2021/08/12 06:18:35;;;;;;;18.65;10.40;;;18.30;99.90;;;;;;5052104;28;20415;-74
2021/08/12 06:21:01;;;;;;;19.23;10.90;;;18.40;99.90;;;;;;5047778;28;20078;-74
2021/08/12 06:23:27;;;;;;;21.58;12.73;;;18.50;99.90;;;;;;5052331;28;20036;-74
2021/08/12 06:25:52;;;;;;;23.27;12.05;;;18.60;99.90;;;;;;5050402;28;20477;-74
2021/08/12 06:28:18;;;;;;;19.73;12.65;;;18.70;99.90;;;;;;5048607;28;20025;-75
2021/08/12 06:30:43;;;;;;;21.05;12.13;;;18.80;99.90;;;;;;5050092;28;20120;-74
2021/08/12 06:33:09;;;;;;;26.42;13.32;;;18.80;99.90;;;;;;5048580;28;20028;-74
2021/08/12 06:35:35;;;;;;;27.23;12.90;;;18.90;99.90;;;;;;5049228;28;20041;-75
2021/08/12 06:38:03;;;;;;;19.90;11.65;;;19.00;99.90;;;;;;5051236;28;20017;-75
2021/08/12 06:40:29;;;;;;;30.25;13.80;;;19.00;99.90;;;;;;5048182;28;20435;-75
2021/08/12 06:42:55;;;;;;;24.90;13.63;;;19.20;99.90;;;;;;5047434;28;20092;-74
2021/08/12 06:45:22;;;;;;;22.40;12.80;;;19.20;99.90;;;;;;5049830;28;20082;-74
2021/08/12 06:47:48;;;;;;;25.45;11.60;;;19.30;99.90;;;;;;5049418;28;20120;-74
2021/08/12 06:50:15;;;;;;;23.23;12.20;;;19.40;99.90;;;;;;5049680;28;20127;-73
2021/08/12 06:52:42;;;;;;;19.42;11.90;;;19.50;99.90;;;;;;5052002;28;20039;-74
2021/08/12 06:55:09;;;;;;;18.73;12.25;;;19.60;99.90;;;;;;5050336;28;20029;-74
2021/08/12 06:57:34;;;;;;;22.60;13.35;;;19.80;99.90;;;;;;5051442;28;20119;-75
2021/08/12 07:00:00;;;;;;;25.88;11.10;;;19.80;99.90;;;;;;5053048;28;20092;-75
2021/08/12 07:02:26;;;;;;;29.83;12.75;;;19.80;99.90;;;;;;5051213;28;20090;-76
2021/08/12 07:04:51;;;;;;;22.38;13.40;;;19.80;99.90;;;;;;5050811;28;20033;-74
2021/08/12 07:07:17;;;;;;;24.65;11.05;;;19.90;99.90;;;;;;5049718;28;20021;-74
2021/08/12 07:09:43;;;;;;;19.95;11.27;;;19.80;99.90;;;;;;5050915;28;20075;-74
2021/08/12 07:12:09;;;;;;;18.38;11.52;;;19.80;99.90;;;;;;5051964;28;20028;-74
2021/08/12 07:14:35;;;;;;;24.55;12.38;;;19.80;99.90;;;;;;5050384;28;20037;-74
2021/08/12 07:17:01;;;;;;;19.88;10.90;;;19.90;99.90;;;;;;5051675;28;20036;-75
2021/08/12 07:19:27;;;;;;;19.33;10.98;;;20.10;99.90;;;;;;5054054;28;20033;-76
2021/08/12 07:21:53;;;;;;;16.90;10.13;;;20.10;99.90;;;;;;5051789;28;20021;-73
2021/08/12 07:24:19;;;;;;;14.65;9.45;;;20.10;99.90;;;;;;5053103;28;20029;-74
2021/08/12 07:26:47;;;;;;;19.23;11.00;;;20.10;99.90;;;;;;5052423;28;20032;-71
2021/08/12 07:29:16;;;;;;;19.50;10.20;;;20.30;99.90;;;;;;5052553;28;20021;-72
2021/08/12 07:31:42;;;;;;;18.60;9.88;;;20.40;99.90;;;;;;5054028;28;20025;-73
2021/08/12 07:34:08;;;;;;;20.92;11.52;;;20.50;99.90;;;;;;5056414;28;20032;-72
2021/08/12 07:36:35;;;;;;;16.52;9.23;;;20.60;99.90;;;;;;5055491;28;20017;-74
2021/08/12 07:39:02;;;;;;;16.27;9.30;;;20.60;99.90;;;;;;5056172;28;20488;-73
2021/08/12 07:41:28;;;;;;;12.70;8.25;;;20.80;99.90;;;;;;5055933;28;20025;-73
2021/08/12 07:43:54;;;;;;;12.75;7.90;;;20.80;99.90;;;;;;5061043;28;20052;-75
2021/08/12 07:46:20;;;;;;;15.18;7.68;;;20.90;99.90;;;;;;5055812;28;20025;-74
2021/08/12 07:48:45;;;;;;;13.60;7.78;;;21.00;99.90;;;;;;5064811;28;20371;-75
2021/08/12 07:51:11;;;;;;;16.17;7.50;;;21.10;99.90;;;;;;5056565;28;20033;-74
2021/08/12 07:53:37;;;;;;;14.85;8.35;;;21.20;99.90;;;;;;5056165;28;20078;-74
2021/08/12 07:56:03;;;;;;;12.95;8.07;;;21.30;99.90;;;;;;5053406;28;20408;-74
2021/08/12 07:58:28;;;;;;;12.80;7.50;;;21.20;99.90;;;;;;5055660;28;20032;-75
2021/08/12 08:00:54;;;;;;;14.55;8.80;;;21.30;99.90;;;;;;5056240;28;20087;-75
2021/08/12 08:03:20;;;;;;;11.73;7.82;;;21.50;99.90;;;;;;5055589;28;20120;-74
2021/08/12 08:05:46;;;;;;;15.80;6.63;;;21.70;99.90;;;;;;5053776;28;20028;-74
2021/08/12 08:08:12;;;;;;;9.65;5.35;;;21.90;99.90;;;;;;5051828;28;20470;-75
2021/08/12 08:10:37;;;;;;;12.35;6.03;;;22.00;99.90;;;;;;5050583;28;20025;-74
2021/08/12 08:13:04;;;;;;;10.07;6.15;;;22.10;99.90;;;;;;5034652;28;20038;-75
2021/08/12 08:15:29;;;;;;;9.80;5.65;;;22.10;99.90;;;;;;5050984;28;20034;-74
2021/08/12 08:17:55;;;;;;;7.45;5.82;;;22.10;99.90;;;;;;5036048;28;20449;-74
2021/08/12 08:20:21;;;;;;;10.82;5.60;;;22.20;99.90;;;;;;5038551;28;20037;-75
2021/08/12 08:22:47;;;;;;;7.20;4.53;;;22.30;99.90;;;;;;5053747;28;20107;-76
2021/08/12 08:25:14;;;;;;;7.43;5.07;;;22.40;99.90;;;;;;5053455;28;20020;-74
2021/08/12 08:27:40;;;;;;;8.00;5.60;;;22.60;99.90;;;;;;5051080;28;20026;-76
2021/08/12 08:30:06;;;;;;;13.20;6.15;;;22.60;99.90;;;;;;5036000;28;20025;-75
2021/08/12 08:32:32;;;;;;;13.53;6.40;;;22.70;99.90;;;;;;5035705;28;20437;-74
2021/08/12 08:34:58;;;;;;;10.35;6.55;;;22.90;99.90;;;;;;5042972;28;20025;-77
2021/08/12 08:37:24;;;;;;;7.05;5.50;;;22.90;99.90;;;;;;5058233;28;20045;-75
2021/08/12 08:39:50;;;;;;;16.25;4.68;;;23.00;99.90;;;;;;5050108;28;20033;-75
2021/08/12 08:42:16;;;;;;;6.82;4.53;;;23.10;99.90;;;;;;5047938;28;20026;-75
2021/08/12 08:44:45;;;;;;;8.20;4.68;;;23.20;99.90;;;;;;5071085;28;20084;-74
2021/08/12 08:47:14;;;;;;;5.93;3.50;;;23.20;99.90;;;;;;5055389;28;20096;-74
2021/08/12 08:49:42;;;;;;;8.00;3.38;;;23.30;99.90;;;;;;5063043;28;20059;-75
2021/08/12 08:52:09;;;;;;;5.00;3.15;;;23.50;99.90;;;;;;5060860;28;20082;-75
2021/08/12 08:54:37;;;;;;;8.63;3.83;;;23.90;99.90;;;;;;5057230;28;20056;-75
2021/08/12 08:57:05;;;;;;;5.55;2.92;;;24.20;99.90;;;;;;5059643;28;20108;-75
2021/08/12 08:59:32;;;;;;;;;;;24.40;99.90;;;;;;5065930;28;20120;-75
2021/08/12 09:01:57;;;;;;;;;;;24.30;99.90;;;;;;5071419;28;20198;-76
2021/08/12 09:04:23;;;;;;;7.43;3.42;;;24.40;99.90;;;;;;5072168;28;20383;-76
2021/08/12 09:06:49;;;;;;;4.93;3.10;;;24.60;99.90;;;;;;5067942;28;20025;-76
2021/08/12 09:09:14;;;;;;;5.18;3.10;;;24.70;99.90;;;;;;5054924;28;20112;-76
2021/08/12 09:11:40;;;;;;;12.50;4.10;;;24.80;99.90;;;;;;5061669;28;20490;-73
2021/08/12 09:14:28;;;;;;;5.93;3.08;;;25.00;99.90;;;;;;5071574;28;20093;-74
2021/08/12 09:16:54;;;;;;;5.28;3.65;;;25.20;99.90;;;;;;5068736;28;20025;-74
2021/08/12 09:19:23;;;;;;;4.88;3.63;;;25.30;99.90;;;;;;5053124;28;20032;-76
2021/08/12 09:21:59;;;;;;;7.35;2.63;;;25.50;99.90;;;;;;5058547;28;20025;-75
2021/08/12 09:24:25;;;;;;;6.93;2.90;;;25.50;99.90;;;;;;5060367;28;20082;-73
2021/08/12 09:26:51;;;;;;;5.10;2.88;;;25.50;99.90;;;;;;5062944;28;20017;-73
2021/08/12 09:29:31;;;;;;;4.03;3.00;;;25.90;99.90;;;;;;5074047;28;20103;-75
2021/08/12 09:32:03;;;;;;;3.25;2.90;;;26.20;99.90;;;;;;5052402;28;20021;-73
2021/08/12 09:34:43;;;;;;;6.05;3.22;;;26.30;99.90;;;;;;5043015;28;20374;-73
2021/08/12 09:37:10;;;;;;;6.03;3.15;;;26.60;99.90;;;;;;5052812;28;20027;-73
2021/08/12 09:39:36;;;;;;;4.18;3.60;;;27.00;99.90;;;;;;5054167;28;20028;-73
2021/08/12 09:42:05;;;;;;;4.35;3.75;;;27.40;99.90;;;;;;5053570;28;20017;-75
2021/08/12 09:44:51;;;;;;;7.30;3.97;;;27.60;99.90;;;;;;5054052;28;20028;-74
2021/08/12 09:47:20;;;;;;;4.05;3.58;;;27.60;99.80;;;;;;5036717;28;20033;-74
2021/08/12 09:49:50;;;;;;;6.85;3.95;;;27.50;99.70;;;;;;5046964;28;20111;-74
2021/08/12 09:52:26;;;;;;;7.65;3.63;;;27.40;99.90;;;;;;5066733;28;20071;-74
2021/08/12 09:55:00;;;;;;;6.97;3.30;;;27.30;99.90;;;;;;5065184;28;20029;-74
2021/08/12 09:57:42;;;;;;;6.55;4.32;;;27.30;99.90;;;;;;5066991;28;20406;-74
2021/08/12 10:00:10;;;;;;;6.45;3.10;;;27.00;99.90;;;;;;5070516;28;20495;-74
2021/08/12 10:02:36;;;;;;;5.43;3.58;;;26.90;99.90;;;;;;5052666;28;20036;-74
2021/08/12 10:05:08;;;;;;;5.45;3.60;;;26.80;99.90;;;;;;5056900;28;20016;-74
2021/08/12 10:07:44;;;;;;;6.82;2.95;;;26.80;99.90;;;;;;5052675;28;20028;-74
2021/08/12 10:10:29;;;;;;;5.05;2.78;;;26.70;99.90;;;;;;5053744;28;20481;-73
2021/08/12 10:13:00;;;;;;;4.60;3.25;;;26.60;99.90;;;;;;5049901;28;20045;-74
2021/08/12 10:15:33;;;;;;;7.93;3.20;;;26.60;99.90;;;;;;5051435;28;20400;-74
2021/08/12 10:18:04;;;;;;;8.65;3.00;;;26.80;99.90;;;;;;5051168;28;20021;-75
2021/08/12 10:20:35;;;;;;;4.07;2.97;;;26.70;99.90;;;;;;5049247;28;20033;-74
2021/08/12 10:23:03;;;;;;;4.22;3.20;;;26.80;99.90;;;;;;5049529;28;20033;-74
2021/08/12 10:25:29;;;;;;;5.28;3.53;;;26.90;99.50;;;;;;5067283;28;20059;-74
2021/08/12 10:27:58;;;;;;;2.92;2.50;;;27.10;99.90;;;;;;5053035;28;20024;-74
2021/08/12 10:30:25;;;;;;;6.22;3.13;;;27.20;99.90;;;;;;5049296;28;20384;-74
2021/08/12 10:32:59;;;;;;;7.00;3.15;;;27.40;99.70;;;;;;5048346;28;20365;-73
2021/08/12 10:35:27;;;;;;;4.80;2.50;;;27.50;99.60;;;;;;5055478;28;20029;-73
2021/08/12 10:37:54;;;;;;;4.10;2.58;;;27.60;99.10;;;;;;5047022;28;20027;-74
2021/08/12 10:40:22;;;;;;;4.20;2.75;;;27.70;99.00;;;;;;5045321;28;20088;-73
2021/08/12 10:42:49;;;;;;;3.88;3.40;;;27.80;99.00;;;;;;5053227;28;20550;-73
2021/08/12 10:45:18;;;;;;;;;;;27.70;99.10;;;;;;5045073;28;20018;-73
2021/08/12 10:47:49;;;;;;;2.88;2.20;;;27.60;99.40;;;;;;5050348;28;19931;-74
2021/08/12 10:50:23;;;;;;;5.07;3.05;;;27.60;99.20;;;;;;5051393;28;20025;-74
2021/08/12 10:53:06;;;;;;;4.90;2.70;;;27.50;99.60;;;;;;5050465;28;20078;-74
2021/08/12 10:55:52;;;;;;;4.50;2.40;;;27.40;99.90;;;;;;5048097;28;20401;-74
2021/08/12 10:58:22;;;;;;;3.92;2.67;;;27.30;99.40;;;;;;5050905;28;20120;-73
2021/08/12 11:00:59;;;;;;;7.03;2.88;;;26.90;98.70;;;;;;5043829;28;20041;-73
2021/08/12 11:03:34;;;;;;;3.15;2.30;;;26.70;99.80;;;;;;5063683;28;20485;-74
2021/08/12 11:06:05;;;;;;;10.20;3.13;;;26.60;99.90;;;;;;5058372;28;20033;-73
2021/08/12 11:08:49;;;;;;;8.63;3.00;;;26.40;99.90;;;;;;5065498;28;20029;-74
2021/08/12 11:11:20;;;;;;;3.38;2.90;;;26.10;99.90;;;;;;5057249;28;20048;-73
2021/08/12 11:13:47;;;;;;;3.25;2.90;;;26.10;99.90;;;;;;5060501;28;20492;-73
2021/08/12 11:16:13;;;;;;;6.23;2.57;;;25.90;99.90;;;;;;5067410;28;20083;-73
2021/08/12 11:18:50;;;;;;;5.90;3.22;;;25.80;99.90;;;;;;5055269;28;20056;-72
2021/08/12 11:21:31;;;;;;;4.88;2.97;;;25.70;99.90;;;;;;5058051;28;20121;-74
2021/08/12 11:24:02;;;;;;;5.40;2.45;;;25.70;99.90;;;;;;5055233;28;20024;-74
2021/08/12 11:26:44;;;;;;;5.22;2.80;;;25.70;99.90;;;;;;5060354;28;20107;-74
2021/08/12 11:29:27;;;;;;;3.63;2.30;;;25.40;99.90;;;;;;5058609;28;20051;-74
2021/08/12 11:31:55;;;;;;;5.43;2.97;;;25.40;99.90;;;;;;5058432;28;20439;-75
2021/08/12 11:34:45;;;;;;;3.28;2.88;;;25.30;99.90;;;;;;5054740;28;20417;-73
2021/08/12 11:37:21;;;;;;;3.50;2.42;;;25.30;99.90;;;;;;5058111;28;20468;-75
2021/08/12 11:40:07;;;;;;;6.82;3.00;;;25.20;99.90;;;;;;5054173;28;20347;-75
2021/08/12 11:42:34;;;;;;;3.05;2.60;;;25.30;99.90;;;;;;5056123;28;20744;-75
2021/08/12 11:45:14;;;;;;;9.30;2.50;;;25.20;99.90;;;;;;5058202;28;20392;-76
2021/08/12 11:47:42;;;;;;;4.40;2.15;;;25.30;99.90;;;;;;5056878;28;20043;-74
2021/08/12 11:50:13;;;;;;;3.17;2.40;;;25.40;99.90;;;;;;5062772;28;20032;-75
2021/08/12 11:52:47;;;;;;;4.72;2.97;;;25.50;99.90;;;;;;5070223;28;20105;-74
2021/08/12 11:55:18;;;;;;;4.82;2.88;;;25.80;99.90;;;;;;5067920;28;20103;-74
2021/08/12 11:57:44;;;;;;;4.28;2.40;;;26.00;99.90;;;;;;5061059;28;20051;-73
2021/08/12 12:00:31;;;;;;;2.15;1.98;;;26.20;99.90;;;;;;5060784;28;20021;-74
2021/08/12 12:03:05;;;;;;;2.58;2.17;;;26.50;99.90;;;;;;5064425;28;20103;-74
2021/08/12 12:05:35;;;;;;;3.33;2.22;;;26.50;99.70;;;;;;5059001;28;20028;-73
2021/08/12 12:08:10;;;;;;;4.35;2.83;;;26.50;99.90;;;;;;5050653;28;20068;-74
2021/08/12 12:10:44;;;;;;;2.50;1.98;;;26.50;99.90;;;;;;5056021;28;20025;-74
2021/08/12 12:13:13;;;;;;;4.25;2.30;;;26.60;99.90;;;;;;5053854;28;20396;-74
2021/08/12 12:15:47;;;;;;;5.97;2.55;;;26.80;99.90;;;;;;5035421;28;20073;-74
2021/08/12 12:18:17;;;;;;;3.35;3.03;;;26.90;99.90;;;;;;5053636;28;20021;-75
2021/08/12 12:20:45;;;;;;;2.83;2.13;;;27.00;99.20;;;;;;5059546;28;20388;-75
2021/08/12 12:23:12;;;;;;;2.97;2.10;;;27.00;99.40;;;;;;5054323;28;20078;-76
2021/08/12 12:25:41;;;;;;;2.70;2.22;;;27.10;99.40;;;;;;5074749;28;20025;-76
2021/08/12 12:28:07;;;;;;;4.47;2.50;;;27.40;99.30;;;;;;5065207;28;20519;-75
2021/08/12 12:30:34;;;;;;;3.08;2.65;;;27.40;99.30;;;;;;5068288;28;20029;-76
2021/08/12 12:33:15;;;;;;;3.42;2.45;;;27.40;99.20;;;;;;5071949;28;20039;-74
2021/08/12 12:35:47;;;;;;;4.15;2.60;;;27.20;99.60;;;;;;5056444;28;20032;-75
2021/08/12 12:38:16;;;;;;;5.03;2.85;;;26.60;99.90;;;;;;5053725;28;20104;-75
2021/08/12 12:40:43;;;;;;;3.80;2.53;;;26.60;99.90;;;;;;5052574;28;20026;-76
2021/08/12 12:43:09;;;;;;;3.78;2.80;;;26.70;99.90;;;;;;5050246;28;20028;-75